sensor_id;sensor_type;location;lat;lon;timestamp;temperature;humidity
10468;DHT22;5281;48.878;9.394;2023-06-10T00:02:22;19.20;99.90
10468;DHT22;5281;48.878;9.394;2023-06-10T00:04:49;19.10;99.90
10468;DHT22;5281;48.878;9.394;2023-06-10T00:07:16;19.10;99.90
10468;DHT22;5281;48.878;9.394;2023-06-10T00:09:44;19.10;99.90
10468;DHT22;5281;48.878;9.394;2023-06-10T00:12:11;19.10;99.90
10468;DHT22;5281;48.878;9.394;2023-06-10T00:14:39;19.00;99.90
10468;DHT22;5281;48.878;9.394;2023-06-10T00:17:06;19.00;99.90
10468;DHT22;5281;48.878;9.394;2023-06-10T00:19:35;18.90;99.90
10468;DHT22;5281;48.878;9.394;2023-06-10T00:22:02;19.00;99.90
10468;DHT22;5281;48.878;9.394;2023-06-10T00:24:30;18.90;99.90
10468;DHT22;5281;48.878;9.394;2023-06-10T00:26:58;18.90;99.90
10468;DHT22;5281;48.878;9.394;2023-06-10T00:29:24;18.90;99.90
10468;DHT22;5281;48.878;9.394;2023-06-10T00:31:51;18.80;99.90
10468;DHT22;5281;48.878;9.394;2023-06-10T00:34:19;18.80;99.90
10468;DHT22;5281;48.878;9.394;2023-06-10T00:36:46;18.80;99.90
10468;DHT22;5281;48.878;9.394;2023-06-10T00:39:13;18.80;99.90
10468;DHT22;5281;48.878;9.394;2023-06-10T00:41:40;18.70;99.90
10468;DHT22;5281;48.878;9.394;2023-06-10T00:44:08;18.60;99.90
10468;DHT22;5281;48.878;9.394;2023-06-10T00:46:34;18.60;99.90
10468;DHT22;5281;48.878;9.394;2023-06-10T00:49:02;18.60;99.90
10468;DHT22;5281;48.878;9.394;2023-06-10T00:51:29;18.60;99.90
10468;DHT22;5281;48.878;9.394;2023-06-10T00:53:56;18.60;99.90
10468;DHT22;5281;48.878;9.394;2023-06-10T00:56:23;18.60;99.90
10468;DHT22;5281;48.878;9.394;2023-06-10T00:58:50;18.60;99.90
10468;DHT22;5281;48.878;9.394;2023-06-10T01:01:18;18.50;99.90
10468;DHT22;5281;48.878;9.394;2023-06-10T01:03:45;18.50;99.90
10468;DHT22;5281;48.878;9.394;2023-06-10T01:06:20;18.40;99.90
10468;DHT22;5281;48.878;9.394;2023-06-10T01:08:56;18.40;99.90
10468;DHT22;5281;48.878;9.394;2023-06-10T01:11:29;18.40;99.90
10468;DHT22;5281;48.878;9.394;2023-06-10T01:13:58;18.50;99.90
10468;DHT22;5281;48.878;9.394;2023-06-10T01:16:27;18.40;99.90
10468;DHT22;5281;48.878;9.394;2023-06-10T01:18:54;18.50;99.90
10468;DHT22;5281;48.878;9.394;2023-06-10T01:21:23;18.50;99.90
10468;DHT22;5281;48.878;9.394;2023-06-10T01:23:52;18.50;99.90
10468;DHT22;5281;48.878;9.394;2023-06-10T01:26:23;18.50;99.90
10468;DHT22;5281;48.878;9.394;2023-06-10T01:28:54;18.40;99.90
10468;DHT22;5281;48.878;9.394;2023-06-10T01:31:30;18.40;99.90
10468;DHT22;5281;48.878;9.394;2023-06-10T01:34:04;18.30;99.90
10468;DHT22;5281;48.878;9.394;2023-06-10T01:36:35;18.30;99.90
10468;DHT22;5281;48.878;9.394;2023-06-10T01:39:04;18.30;99.90
10468;DHT22;5281;48.878;9.394;2023-06-10T01:41:32;18.30;99.90
10468;DHT22;5281;48.878;9.394;2023-06-10T01:43:59;18.20;99.90
10468;DHT22;5281;48.878;9.394;2023-06-10T01:46:26;18.20;99.90
10468;DHT22;5281;48.878;9.394;2023-06-10T01:48:53;18.20;99.90
10468;DHT22;5281;48.878;9.394;2023-06-10T01:51:20;18.20;99.90
10468;DHT22;5281;48.878;9.394;2023-06-10T01:53:48;18.20;99.90
10468;DHT22;5281;48.878;9.394;2023-06-10T01:56:15;18.20;99.90
10468;DHT22;5281;48.878;9.394;2023-06-10T01:58:44;18.10;99.90
10468;DHT22;5281;48.878;9.394;2023-06-10T02:01:11;18.00;99.90
10468;DHT22;5281;48.878;9.394;2023-06-10T02:03:38;18.00;99.90
10468;DHT22;5281;48.878;9.394;2023-06-10T02:06:05;18.00;99.90
10468;DHT22;5281;48.878;9.394;2023-06-10T02:08:32;18.00;99.90
10468;DHT22;5281;48.878;9.394;2023-06-10T02:11:00;17.90;99.90
10468;DHT22;5281;48.878;9.394;2023-06-10T02:13:27;17.90;99.90
10468;DHT22;5281;48.878;9.394;2023-06-10T02:15:54;17.90;99.90
10468;DHT22;5281;48.878;9.394;2023-06-10T02:18:21;17.90;99.90
10468;DHT22;5281;48.878;9.394;2023-06-10T02:20:48;17.90;99.90
10468;DHT22;5281;48.878;9.394;2023-06-10T02:23:15;17.90;99.90
10468;DHT22;5281;48.878;9.394;2023-06-10T02:25:42;17.90;99.90
10468;DHT22;5281;48.878;9.394;2023-06-10T02:28:10;17.90;99.90
10468;DHT22;5281;48.878;9.394;2023-06-10T02:30:39;17.90;99.90
10468;DHT22;5281;48.878;9.394;2023-06-10T02:33:06;17.90;99.90
10468;DHT22;5281;48.878;9.394;2023-06-10T02:35:35;17.90;99.90
10468;DHT22;5281;48.878;9.394;2023-06-10T02:38:02;17.80;99.90
10468;DHT22;5281;48.878;9.394;2023-06-10T02:40:29;17.80;99.90
10468;DHT22;5281;48.878;9.394;2023-06-10T02:42:56;17.80;99.90
10468;DHT22;5281;48.878;9.394;2023-06-10T02:45:25;17.80;99.90
10468;DHT22;5281;48.878;9.394;2023-06-10T02:47:52;17.80;99.90
10468;DHT22;5281;48.878;9.394;2023-06-10T02:50:19;17.80;99.90
10468;DHT22;5281;48.878;9.394;2023-06-10T02:52:45;17.80;99.90
10468;DHT22;5281;48.878;9.394;2023-06-10T02:55:12;17.80;99.90
10468;DHT22;5281;48.878;9.394;2023-06-10T02:57:39;17.80;99.90
10468;DHT22;5281;48.878;9.394;2023-06-10T03:00:07;17.80;99.90
10468;DHT22;5281;48.878;9.394;2023-06-10T03:02:37;17.80;99.90
10468;DHT22;5281;48.878;9.394;2023-06-10T03:05:05;17.70;99.90
10468;DHT22;5281;48.878;9.394;2023-06-10T03:07:35;17.80;99.90
10468;DHT22;5281;48.878;9.394;2023-06-10T03:10:02;17.80;99.90
10468;DHT22;5281;48.878;9.394;2023-06-10T03:12:29;17.80;99.90
10468;DHT22;5281;48.878;9.394;2023-06-10T03:14:56;17.80;99.90
10468;DHT22;5281;48.878;9.394;2023-06-10T03:17:23;17.80;99.90
10468;DHT22;5281;48.878;9.394;2023-06-10T03:19:52;17.80;99.90
10468;DHT22;5281;48.878;9.394;2023-06-10T03:22:19;17.70;99.90
10468;DHT22;5281;48.878;9.394;2023-06-10T03:24:46;17.70;99.90
10468;DHT22;5281;48.878;9.394;2023-06-10T03:27:15;17.80;99.90
10468;DHT22;5281;48.878;9.394;2023-06-10T03:29:43;17.80;99.90
10468;DHT22;5281;48.878;9.394;2023-06-10T03:32:10;17.80;99.90
10468;DHT22;5281;48.878;9.394;2023-06-10T03:34:37;17.80;99.90
10468;DHT22;5281;48.878;9.394;2023-06-10T03:37:05;17.80;99.90
10468;DHT22;5281;48.878;9.394;2023-06-10T03:39:32;17.90;99.90
10468;DHT22;5281;48.878;9.394;2023-06-10T03:41:59;17.90;99.90
10468;DHT22;5281;48.878;9.394;2023-06-10T03:44:26;17.90;99.90
10468;DHT22;5281;48.878;9.394;2023-06-10T03:46:53;18.00;99.90
10468;DHT22;5281;48.878;9.394;2023-06-10T03:49:20;18.00;99.90
10468;DHT22;5281;48.878;9.394;2023-06-10T03:51:47;18.10;99.90
10468;DHT22;5281;48.878;9.394;2023-06-10T03:54:15;18.10;99.90
10468;DHT22;5281;48.878;9.394;2023-06-10T03:56:42;18.10;99.90
10468;DHT22;5281;48.878;9.394;2023-06-10T03:59:09;18.20;99.90
10468;DHT22;5281;48.878;9.394;2023-06-10T04:01:36;18.10;99.90
10468;DHT22;5281;48.878;9.394;2023-06-10T04:04:06;18.10;99.90
10468;DHT22;5281;48.878;9.394;2023-06-10T04:06:33;18.10;99.90
10468;DHT22;5281;48.878;9.394;2023-06-10T04:09:00;18.10;99.90
10468;DHT22;5281;48.878;9.394;2023-06-10T04:11:30;18.10;99.90
10468;DHT22;5281;48.878;9.394;2023-06-10T04:13:58;18.00;99.90
10468;DHT22;5281;48.878;9.394;2023-06-10T04:16:25;18.10;99.90
10468;DHT22;5281;48.878;9.394;2023-06-10T04:18:51;18.20;99.90
10468;DHT22;5281;48.878;9.394;2023-06-10T04:21:18;18.20;99.90
10468;DHT22;5281;48.878;9.394;2023-06-10T04:23:45;18.30;99.90
10468;DHT22;5281;48.878;9.394;2023-06-10T04:26:12;18.30;99.90
10468;DHT22;5281;48.878;9.394;2023-06-10T04:28:40;18.30;99.90
10468;DHT22;5281;48.878;9.394;2023-06-10T04:31:09;18.20;99.90
10468;DHT22;5281;48.878;9.394;2023-06-10T04:33:36;18.10;99.90
10468;DHT22;5281;48.878;9.394;2023-06-10T04:36:03;18.20;99.90
10468;DHT22;5281;48.878;9.394;2023-06-10T04:38:32;18.20;99.90
10468;DHT22;5281;48.878;9.394;2023-06-10T04:40:59;18.30;99.90
10468;DHT22;5281;48.878;9.394;2023-06-10T04:43:26;18.50;99.90
10468;DHT22;5281;48.878;9.394;2023-06-10T04:45:55;18.80;99.90
10468;DHT22;5281;48.878;9.394;2023-06-10T04:48:22;19.30;99.90
10468;DHT22;5281;48.878;9.394;2023-06-10T04:50:49;20.20;99.90
10468;DHT22;5281;48.878;9.394;2023-06-10T04:53:16;21.50;99.90
10468;DHT22;5281;48.878;9.394;2023-06-10T04:55:43;23.00;99.90
10468;DHT22;5281;48.878;9.394;2023-06-10T04:58:10;24.60;99.90
10468;DHT22;5281;48.878;9.394;2023-06-10T05:00:37;26.10;96.40
10468;DHT22;5281;48.878;9.394;2023-06-10T05:03:05;27.40;93.50
10468;DHT22;5281;48.878;9.394;2023-06-10T05:05:32;28.70;90.30
10468;DHT22;5281;48.878;9.394;2023-06-10T05:07:59;30.00;84.90
10468;DHT22;5281;48.878;9.394;2023-06-10T05:10:26;31.20;79.30
10468;DHT22;5281;48.878;9.394;2023-06-10T05:12:57;32.30;73.10
10468;DHT22;5281;48.878;9.394;2023-06-10T05:15:23;33.20;69.90
10468;DHT22;5281;48.878;9.394;2023-06-10T05:17:50;34.00;66.40
10468;DHT22;5281;48.878;9.394;2023-06-10T05:20:18;34.70;64.00
10468;DHT22;5281;48.878;9.394;2023-06-10T05:22:45;35.20;60.30
10468;DHT22;5281;48.878;9.394;2023-06-10T05:25:12;35.30;59.30
10468;DHT22;5281;48.878;9.394;2023-06-10T05:27:39;35.70;58.10
10468;DHT22;5281;48.878;9.394;2023-06-10T05:30:09;36.30;56.10
10468;DHT22;5281;48.878;9.394;2023-06-10T05:32:36;36.70;55.90
10468;DHT22;5281;48.878;9.394;2023-06-10T05:35:04;37.10;54.40
10468;DHT22;5281;48.878;9.394;2023-06-10T05:37:33;37.60;54.00
10468;DHT22;5281;48.878;9.394;2023-06-10T05:40:00;38.00;53.00
10468;DHT22;5281;48.878;9.394;2023-06-10T05:42:27;38.00;51.60
10468;DHT22;5281;48.878;9.394;2023-06-10T05:44:54;37.70;52.50
10468;DHT22;5281;48.878;9.394;2023-06-10T05:47:20;37.70;52.90
10468;DHT22;5281;48.878;9.394;2023-06-10T05:49:47;38.00;51.90
10468;DHT22;5281;48.878;9.394;2023-06-10T05:52:15;38.70;51.00
10468;DHT22;5281;48.878;9.394;2023-06-10T05:54:43;39.40;49.70
10468;DHT22;5281;48.878;9.394;2023-06-10T05:57:10;39.50;49.10
10468;DHT22;5281;48.878;9.394;2023-06-10T05:59:37;39.50;49.50
10468;DHT22;5281;48.878;9.394;2023-06-10T06:02:04;40.20;48.30
10468;DHT22;5281;48.878;9.394;2023-06-10T06:04:31;40.70;47.70
10468;DHT22;5281;48.878;9.394;2023-06-10T06:06:58;40.00;48.20
10468;DHT22;5281;48.878;9.394;2023-06-10T06:09:25;40.20;47.70
10468;DHT22;5281;48.878;9.394;2023-06-10T06:11:53;40.50;47.00
10468;DHT22;5281;48.878;9.394;2023-06-10T06:14:20;40.70;47.50
10468;DHT22;5281;48.878;9.394;2023-06-10T06:16:47;40.50;47.00
10468;DHT22;5281;48.878;9.394;2023-06-10T06:19:14;39.90;48.00
10468;DHT22;5281;48.878;9.394;2023-06-10T06:21:41;40.40;47.70
10468;DHT22;5281;48.878;9.394;2023-06-10T06:24:08;41.30;46.30
10468;DHT22;5281;48.878;9.394;2023-06-10T06:26:34;42.20;45.10
10468;DHT22;5281;48.878;9.394;2023-06-10T06:29:03;42.70;44.40
10468;DHT22;5281;48.878;9.394;2023-06-10T06:31:30;43.40;43.90
10468;DHT22;5281;48.878;9.394;2023-06-10T06:33:57;43.70;42.90
10468;DHT22;5281;48.878;9.394;2023-06-10T06:36:24;44.10;42.20
10468;DHT22;5281;48.878;9.394;2023-06-10T06:38:50;44.70;41.30
10468;DHT22;5281;48.878;9.394;2023-06-10T06:41:17;45.20;41.00
10468;DHT22;5281;48.878;9.394;2023-06-10T06:43:45;45.20;40.60
10468;DHT22;5281;48.878;9.394;2023-06-10T06:46:13;45.00;41.00
10468;DHT22;5281;48.878;9.394;2023-06-10T06:48:41;45.20;40.70
10468;DHT22;5281;48.878;9.394;2023-06-10T06:51:08;45.00;40.80
10468;DHT22;5281;48.878;9.394;2023-06-10T06:53:35;45.10;40.40
10468;DHT22;5281;48.878;9.394;2023-06-10T06:56:02;45.40;40.20
10468;DHT22;5281;48.878;9.394;2023-06-10T06:58:29;45.70;39.80
10468;DHT22;5281;48.878;9.394;2023-06-10T07:00:56;46.20;38.90
10468;DHT22;5281;48.878;9.394;2023-06-10T07:03:24;46.70;38.50
10468;DHT22;5281;48.878;9.394;2023-06-10T07:05:50;47.20;38.10
10468;DHT22;5281;48.878;9.394;2023-06-10T07:08:17;47.70;37.30
10468;DHT22;5281;48.878;9.394;2023-06-10T07:10:44;47.50;36.90
10468;DHT22;5281;48.878;9.394;2023-06-10T07:13:11;46.50;38.30
10468;DHT22;5281;48.878;9.394;2023-06-10T07:15:38;46.30;37.30
10468;DHT22;5281;48.878;9.394;2023-06-10T07:18:05;45.80;37.80
10468;DHT22;5281;48.878;9.394;2023-06-10T07:20:33;45.50;37.70
10468;DHT22;5281;48.878;9.394;2023-06-10T07:23:00;44.60;38.80
10468;DHT22;5281;48.878;9.394;2023-06-10T07:25:27;44.40;38.70
10468;DHT22;5281;48.878;9.394;2023-06-10T07:27:54;44.60;38.80
10468;DHT22;5281;48.878;9.394;2023-06-10T07:30:21;44.70;38.80
10468;DHT22;5281;48.878;9.394;2023-06-10T07:32:48;45.10;38.20
10468;DHT22;5281;48.878;9.394;2023-06-10T07:35:15;45.70;37.80
10468;DHT22;5281;48.878;9.394;2023-06-10T07:37:43;46.30;37.10
10468;DHT22;5281;48.878;9.394;2023-06-10T07:40:10;46.90;36.50
10468;DHT22;5281;48.878;9.394;2023-06-10T07:42:37;47.40;35.80
10468;DHT22;5281;48.878;9.394;2023-06-10T07:45:04;47.60;35.80
10468;DHT22;5281;48.878;9.394;2023-06-10T07:47:33;47.60;35.80
10468;DHT22;5281;48.878;9.394;2023-06-10T07:50:00;47.80;34.90
10468;DHT22;5281;48.878;9.394;2023-06-10T07:52:27;47.50;35.10
10468;DHT22;5281;48.878;9.394;2023-06-10T07:54:56;46.50;35.90
10468;DHT22;5281;48.878;9.394;2023-06-10T07:57:23;46.00;36.10
10468;DHT22;5281;48.878;9.394;2023-06-10T07:59:50;45.50;36.70
10468;DHT22;5281;48.878;9.394;2023-06-10T08:02:16;44.30;37.60
10468;DHT22;5281;48.878;9.394;2023-06-10T08:04:43;43.40;39.20
10468;DHT22;5281;48.878;9.394;2023-06-10T08:07:10;43.10;38.90
10468;DHT22;5281;48.878;9.394;2023-06-10T08:09:37;42.90;39.00
10468;DHT22;5281;48.878;9.394;2023-06-10T08:12:06;42.70;39.10
10468;DHT22;5281;48.878;9.394;2023-06-10T08:14:33;42.40;39.70
10468;DHT22;5281;48.878;9.394;2023-06-10T08:17:00;42.30;39.30
10468;DHT22;5281;48.878;9.394;2023-06-10T08:19:27;42.20;39.60
10468;DHT22;5281;48.878;9.394;2023-06-10T08:21:54;42.60;39.30
10468;DHT22;5281;48.878;9.394;2023-06-10T08:24:20;42.60;39.30
10468;DHT22;5281;48.878;9.394;2023-06-10T08:26:47;42.10;39.70
10468;DHT22;5281;48.878;9.394;2023-06-10T08:29:16;42.10;39.80
10468;DHT22;5281;48.878;9.394;2023-06-10T08:31:42;42.00;39.50
10468;DHT22;5281;48.878;9.394;2023-06-10T08:34:09;41.90;39.90
10468;DHT22;5281;48.878;9.394;2023-06-10T08:36:37;41.70;40.10
10468;DHT22;5281;48.878;9.394;2023-06-10T08:39:04;41.10;40.50
10468;DHT22;5281;48.878;9.394;2023-06-10T08:41:34;40.30;41.20
10468;DHT22;5281;48.878;9.394;2023-06-10T08:44:06;40.20;41.40
10468;DHT22;5281;48.878;9.394;2023-06-10T08:46:36;40.00;41.70
10468;DHT22;5281;48.878;9.394;2023-06-10T08:49:05;39.30;42.20
10468;DHT22;5281;48.878;9.394;2023-06-10T08:51:32;37.90;43.80
10468;DHT22;5281;48.878;9.394;2023-06-10T08:54:02;36.30;45.50
10468;DHT22;5281;48.878;9.394;2023-06-10T08:56:30;34.70;47.50
10468;DHT22;5281;48.878;9.394;2023-06-10T08:59:02;33.40;49.70
10468;DHT22;5281;48.878;9.394;2023-06-10T09:01:29;32.30;51.80
10468;DHT22;5281;48.878;9.394;2023-06-10T09:03:59;31.50;53.10
10468;DHT22;5281;48.878;9.394;2023-06-10T09:06:26;30.90;54.50
10468;DHT22;5281;48.878;9.394;2023-06-10T09:08:53;30.40;55.40
10468;DHT22;5281;48.878;9.394;2023-06-10T09:11:20;30.10;56.50
10468;DHT22;5281;48.878;9.394;2023-06-10T09:13:47;30.00;56.50
10468;DHT22;5281;48.878;9.394;2023-06-10T09:16:14;30.10;56.40
10468;DHT22;5281;48.878;9.394;2023-06-10T09:18:42;30.20;56.30
10468;DHT22;5281;48.878;9.394;2023-06-10T09:21:10;30.40;56.10
10468;DHT22;5281;48.878;9.394;2023-06-10T09:23:37;30.40;56.50
10468;DHT22;5281;48.878;9.394;2023-06-10T09:26:08;30.30;56.90
10468;DHT22;5281;48.878;9.394;2023-06-10T09:28:36;30.20;57.60
10468;DHT22;5281;48.878;9.394;2023-06-10T09:31:05;29.80;58.10
10468;DHT22;5281;48.878;9.394;2023-06-10T09:33:33;29.40;59.00
10468;DHT22;5281;48.878;9.394;2023-06-10T09:36:03;29.20;59.50
10468;DHT22;5281;48.878;9.394;2023-06-10T09:38:32;29.10;59.70
10468;DHT22;5281;48.878;9.394;2023-06-10T09:40:59;28.90;60.60
10468;DHT22;5281;48.878;9.394;2023-06-10T09:43:42;28.80;60.90
10468;DHT22;5281;48.878;9.394;2023-06-10T09:46:16;28.70;61.50
10468;DHT22;5281;48.878;9.394;2023-06-10T09:48:44;28.60;61.90
10468;DHT22;5281;48.878;9.394;2023-06-10T09:51:12;28.60;62.80
10468;DHT22;5281;48.878;9.394;2023-06-10T09:53:40;28.70;62.40
10468;DHT22;5281;48.878;9.394;2023-06-10T09:56:07;28.80;62.50
10468;DHT22;5281;48.878;9.394;2023-06-10T09:58:35;28.90;61.60
10468;DHT22;5281;48.878;9.394;2023-06-10T10:01:05;29.00;61.70
10468;DHT22;5281;48.878;9.394;2023-06-10T10:03:32;29.00;62.10
10468;DHT22;5281;48.878;9.394;2023-06-10T10:05:59;29.00;62.30
10468;DHT22;5281;48.878;9.394;2023-06-10T10:08:26;29.00;62.10
10468;DHT22;5281;48.878;9.394;2023-06-10T10:10:56;29.00;61.90
10468;DHT22;5281;48.878;9.394;2023-06-10T10:13:25;29.00;62.40
10468;DHT22;5281;48.878;9.394;2023-06-10T10:15:53;28.90;62.10
10468;DHT22;5281;48.878;9.394;2023-06-10T10:18:24;28.80;62.40
10468;DHT22;5281;48.878;9.394;2023-06-10T10:20:56;28.80;62.60
10468;DHT22;5281;48.878;9.394;2023-06-10T10:23:28;28.80;62.00
10468;DHT22;5281;48.878;9.394;2023-06-10T10:26:00;28.90;62.00
10468;DHT22;5281;48.878;9.394;2023-06-10T10:28:37;28.90;61.60
10468;DHT22;5281;48.878;9.394;2023-06-10T10:31:09;29.00;61.30
10468;DHT22;5281;48.878;9.394;2023-06-10T10:33:42;29.00;61.30
10468;DHT22;5281;48.878;9.394;2023-06-10T10:36:12;29.00;61.40
10468;DHT22;5281;48.878;9.394;2023-06-10T10:38:41;29.20;61.10
10468;DHT22;5281;48.878;9.394;2023-06-10T10:41:10;29.30;59.80
10468;DHT22;5281;48.878;9.394;2023-06-10T10:43:37;29.40;60.00
10468;DHT22;5281;48.878;9.394;2023-06-10T10:46:12;29.50;59.70
10468;DHT22;5281;48.878;9.394;2023-06-10T10:48:39;29.60;59.50
10468;DHT22;5281;48.878;9.394;2023-06-10T10:51:06;29.50;59.40
10468;DHT22;5281;48.878;9.394;2023-06-10T10:53:33;29.40;59.30
10468;DHT22;5281;48.878;9.394;2023-06-10T10:56:05;29.20;59.70
10468;DHT22;5281;48.878;9.394;2023-06-10T10:58:34;29.10;59.70
10468;DHT22;5281;48.878;9.394;2023-06-10T11:01:10;29.20;59.60
10468;DHT22;5281;48.878;9.394;2023-06-10T11:03:43;29.30;59.00
10468;DHT22;5281;48.878;9.394;2023-06-10T11:06:13;29.40;59.10
10468;DHT22;5281;48.878;9.394;2023-06-10T11:08:47;29.50;58.80
10468;DHT22;5281;48.878;9.394;2023-06-10T11:11:20;29.50;58.80
10468;DHT22;5281;48.878;9.394;2023-06-10T11:14:07;29.50;59.20
10468;DHT22;5281;48.878;9.394;2023-06-10T11:16:39;29.60;58.50
10468;DHT22;5281;48.878;9.394;2023-06-10T11:19:06;29.70;58.00
10468;DHT22;5281;48.878;9.394;2023-06-10T11:21:45;29.60;58.10
10468;DHT22;5281;48.878;9.394;2023-06-10T11:24:24;29.50;58.70
10468;DHT22;5281;48.878;9.394;2023-06-10T11:26:52;29.50;58.20
10468;DHT22;5281;48.878;9.394;2023-06-10T11:29:20;29.60;58.10
10468;DHT22;5281;48.878;9.394;2023-06-10T11:31:51;29.70;58.10
10468;DHT22;5281;48.878;9.394;2023-06-10T11:34:24;29.70;58.10
10468;DHT22;5281;48.878;9.394;2023-06-10T11:36:52;29.70;58.10
10468;DHT22;5281;48.878;9.394;2023-06-10T11:39:20;29.70;57.50
10468;DHT22;5281;48.878;9.394;2023-06-10T11:41:48;30.00;56.90
10468;DHT22;5281;48.878;9.394;2023-06-10T11:44:17;30.10;57.00
10468;DHT22;5281;48.878;9.394;2023-06-10T11:46:47;30.10;56.20
10468;DHT22;5281;48.878;9.394;2023-06-10T11:49:14;30.10;56.80
10468;DHT22;5281;48.878;9.394;2023-06-10T11:51:41;30.10;56.50
10468;DHT22;5281;48.878;9.394;2023-06-10T11:54:14;30.40;56.90
10468;DHT22;5281;48.878;9.394;2023-06-10T11:56:41;30.60;55.10
10468;DHT22;5281;48.878;9.394;2023-06-10T11:59:08;30.70;54.90
10468;DHT22;5281;48.878;9.394;2023-06-10T12:01:36;30.70;56.20
10468;DHT22;5281;48.878;9.394;2023-06-10T12:04:06;30.50;57.20
10468;DHT22;5281;48.878;9.394;2023-06-10T12:06:40;30.10;57.40
10468;DHT22;5281;48.878;9.394;2023-06-10T12:09:13;29.90;57.40
10468;DHT22;5281;48.878;9.394;2023-06-10T12:11:40;30.00;57.30
10468;DHT22;5281;48.878;9.394;2023-06-10T12:14:08;30.20;56.70
10468;DHT22;5281;48.878;9.394;2023-06-10T12:16:35;30.50;56.20
10468;DHT22;5281;48.878;9.394;2023-06-10T12:19:04;30.60;55.50
10468;DHT22;5281;48.878;9.394;2023-06-10T12:21:33;30.30;55.80
10468;DHT22;5281;48.878;9.394;2023-06-10T12:24:02;30.20;55.80
10468;DHT22;5281;48.878;9.394;2023-06-10T12:26:41;30.10;56.30
10468;DHT22;5281;48.878;9.394;2023-06-10T12:29:18;30.10;56.30
10468;DHT22;5281;48.878;9.394;2023-06-10T12:31:59;30.40;55.40
10468;DHT22;5281;48.878;9.394;2023-06-10T12:34:35;30.80;54.90
10468;DHT22;5281;48.878;9.394;2023-06-10T12:37:03;31.40;54.80
10468;DHT22;5281;48.878;9.394;2023-06-10T12:39:32;31.50;54.10
10468;DHT22;5281;48.878;9.394;2023-06-10T12:41:59;31.40;54.00
10468;DHT22;5281;48.878;9.394;2023-06-10T12:44:34;31.10;54.00
10468;DHT22;5281;48.878;9.394;2023-06-10T12:47:06;30.90;54.60
10468;DHT22;5281;48.878;9.394;2023-06-10T12:49:35;30.60;55.30
10468;DHT22;5281;48.878;9.394;2023-06-10T12:52:02;30.30;55.70
10468;DHT22;5281;48.878;9.394;2023-06-10T12:54:28;30.30;56.50
10468;DHT22;5281;48.878;9.394;2023-06-10T12:56:55;30.20;56.50
10468;DHT22;5281;48.878;9.394;2023-06-10T12:59:22;30.20;55.60
10468;DHT22;5281;48.878;9.394;2023-06-10T13:01:52;30.30;55.30
10468;DHT22;5281;48.878;9.394;2023-06-10T13:04:19;30.60;55.20
10468;DHT22;5281;48.878;9.394;2023-06-10T13:06:48;30.80;55.00
10468;DHT22;5281;48.878;9.394;2023-06-10T13:09:16;30.90;55.00
10468;DHT22;5281;48.878;9.394;2023-06-10T13:11:42;30.70;55.10
10468;DHT22;5281;48.878;9.394;2023-06-10T13:14:10;30.60;55.80
10468;DHT22;5281;48.878;9.394;2023-06-10T13:16:37;30.70;54.90
10468;DHT22;5281;48.878;9.394;2023-06-10T13:19:04;30.80;55.70
10468;DHT22;5281;48.878;9.394;2023-06-10T13:21:32;31.00;54.40
10468;DHT22;5281;48.878;9.394;2023-06-10T13:24:00;31.00;54.30
10468;DHT22;5281;48.878;9.394;2023-06-10T13:26:27;31.10;54.80
10468;DHT22;5281;48.878;9.394;2023-06-10T13:28:53;31.20;54.80
10468;DHT22;5281;48.878;9.394;2023-06-10T13:31:20;31.30;54.50
10468;DHT22;5281;48.878;9.394;2023-06-10T13:33:47;31.30;55.10
10468;DHT22;5281;48.878;9.394;2023-06-10T13:36:14;31.40;55.00
10468;DHT22;5281;48.878;9.394;2023-06-10T13:38:40;31.40;54.40
10468;DHT22;5281;48.878;9.394;2023-06-10T13:41:08;31.50;54.70
10468;DHT22;5281;48.878;9.394;2023-06-10T13:43:35;31.50;53.80
10468;DHT22;5281;48.878;9.394;2023-06-10T13:46:02;31.40;54.10
10468;DHT22;5281;48.878;9.394;2023-06-10T13:48:29;31.50;54.40
10468;DHT22;5281;48.878;9.394;2023-06-10T13:50:56;31.60;54.20
10468;DHT22;5281;48.878;9.394;2023-06-10T13:53:23;31.50;54.40
10468;DHT22;5281;48.878;9.394;2023-06-10T13:55:50;31.40;55.00
10468;DHT22;5281;48.878;9.394;2023-06-10T13:58:18;31.40;54.80
10468;DHT22;5281;48.878;9.394;2023-06-10T14:00:44;31.30;53.80
10468;DHT22;5281;48.878;9.394;2023-06-10T14:03:12;31.20;54.30
10468;DHT22;5281;48.878;9.394;2023-06-10T14:05:39;31.10;54.50
10468;DHT22;5281;48.878;9.394;2023-06-10T14:08:06;31.10;54.80
10468;DHT22;5281;48.878;9.394;2023-06-10T14:10:33;31.00;54.80
10468;DHT22;5281;48.878;9.394;2023-06-10T14:13:00;31.10;54.20
10468;DHT22;5281;48.878;9.394;2023-06-10T14:15:28;31.40;54.70
10468;DHT22;5281;48.878;9.394;2023-06-10T14:17:56;31.80;54.30
10468;DHT22;5281;48.878;9.394;2023-06-10T14:20:22;31.90;54.30
10468;DHT22;5281;48.878;9.394;2023-06-10T14:22:51;31.70;55.30
10468;DHT22;5281;48.878;9.394;2023-06-10T14:25:17;31.30;55.30
10468;DHT22;5281;48.878;9.394;2023-06-10T14:27:44;30.80;55.60
10468;DHT22;5281;48.878;9.394;2023-06-10T14:30:13;30.50;55.50
10468;DHT22;5281;48.878;9.394;2023-06-10T14:32:41;30.10;56.20
10468;DHT22;5281;48.878;9.394;2023-06-10T14:35:08;29.80;56.70
10468;DHT22;5281;48.878;9.394;2023-06-10T14:37:35;29.60;57.10
10468;DHT22;5281;48.878;9.394;2023-06-10T14:40:02;29.50;57.20
10468;DHT22;5281;48.878;9.394;2023-06-10T14:42:30;29.50;56.90
10468;DHT22;5281;48.878;9.394;2023-06-10T14:44:57;29.50;57.00
10468;DHT22;5281;48.878;9.394;2023-06-10T14:47:24;29.60;55.90
10468;DHT22;5281;48.878;9.394;2023-06-10T14:49:52;29.80;55.00
10468;DHT22;5281;48.878;9.394;2023-06-10T14:52:19;30.00;55.40
10468;DHT22;5281;48.878;9.394;2023-06-10T14:54:46;30.30;55.40
10468;DHT22;5281;48.878;9.394;2023-06-10T14:57:12;30.40;56.10
10468;DHT22;5281;48.878;9.394;2023-06-10T14:59:39;30.60;56.10
10468;DHT22;5281;48.878;9.394;2023-06-10T15:02:06;30.70;57.10
10468;DHT22;5281;48.878;9.394;2023-06-10T15:04:33;30.60;56.20
10468;DHT22;5281;48.878;9.394;2023-06-10T15:07:01;30.60;54.40
10468;DHT22;5281;48.878;9.394;2023-06-10T15:09:28;30.60;54.30
10468;DHT22;5281;48.878;9.394;2023-06-10T15:11:55;30.60;55.30
10468;DHT22;5281;48.878;9.394;2023-06-10T15:14:21;30.60;55.50
10468;DHT22;5281;48.878;9.394;2023-06-10T15:16:48;30.50;56.50
10468;DHT22;5281;48.878;9.394;2023-06-10T15:19:15;30.50;56.50
10468;DHT22;5281;48.878;9.394;2023-06-10T15:21:42;30.40;55.80
10468;DHT22;5281;48.878;9.394;2023-06-10T15:24:10;30.40;56.40
10468;DHT22;5281;48.878;9.394;2023-06-10T15:26:37;30.30;56.30
10468;DHT22;5281;48.878;9.394;2023-06-10T15:29:03;30.40;55.80
10468;DHT22;5281;48.878;9.394;2023-06-10T15:31:31;30.60;55.90
10468;DHT22;5281;48.878;9.394;2023-06-10T15:33:58;30.60;56.70
10468;DHT22;5281;48.878;9.394;2023-06-10T15:36:25;30.50;57.00
10468;DHT22;5281;48.878;9.394;2023-06-10T15:38:52;30.40;56.70
10468;DHT22;5281;48.878;9.394;2023-06-10T15:41:20;30.30;56.40
10468;DHT22;5281;48.878;9.394;2023-06-10T15:43:47;30.20;56.10
10468;DHT22;5281;48.878;9.394;2023-06-10T15:46:14;30.20;56.20
10468;DHT22;5281;48.878;9.394;2023-06-10T15:48:40;30.10;56.20
10468;DHT22;5281;48.878;9.394;2023-06-10T15:51:07;30.10;56.00